createdAt,value
2022-09-03T00:07:17.894Z,23.6
2022-09-03T00:17:26.605Z,23.7
2022-09-03T00:27:35.581Z,23.4
2022-09-03T00:37:43.678Z,23.2
2022-09-03T00:47:51.324Z,23.3
2022-09-03T00:57:59.581Z,23.2
2022-09-03T01:08:08.537Z,23.2
2022-09-03T01:18:16.593Z,23.4
2022-09-03T01:28:24.821Z,23.5
2022-09-03T01:38:32.997Z,23.5
2022-09-03T01:48:40.818Z,23.5
2022-09-03T01:58:50.170Z,23.7
2022-09-03T02:08:50.628Z,23.7
2022-09-03T02:18:59.886Z,23.7
2022-09-03T02:29:07.997Z,23.6
2022-09-03T02:39:16.175Z,23.5
2022-09-03T02:49:24.304Z,23.5
2022-09-03T02:59:32.357Z,23.6
2022-09-03T03:09:40.545Z,23.5
2022-09-03T03:19:48.657Z,23.4
2022-09-03T03:29:56.777Z,23.3
2022-09-03T03:40:04.921Z,23.4
2022-09-03T03:50:12.977Z,23.6
2022-09-03T04:00:21.102Z,23.5
2022-09-03T04:10:29.229Z,23.3
2022-09-03T04:20:37.224Z,23.3
2022-09-03T04:30:45.400Z,23.1
2022-09-03T04:40:52.636Z,23
2022-09-03T04:51:00.691Z,23.1
2022-09-03T05:01:10.133Z,22.9
2022-09-03T05:11:18.144Z,23
2022-09-03T05:21:26.179Z,23.2
2022-09-03T05:31:35.632Z,23.3
2022-09-03T05:41:43.832Z,23.1
2022-09-03T05:51:52.092Z,23.1
2022-09-03T06:02:00.621Z,23.5
2022-09-03T06:12:07.464Z,23.6
2022-09-03T06:22:15.709Z,23.7
2022-09-03T06:32:23.423Z,23.7
2022-09-03T06:42:33.202Z,23.7
2022-09-03T06:52:40.385Z,23.8
2022-09-03T07:02:49.356Z,24
2022-09-03T07:12:58.128Z,24.4
2022-09-03T07:23:08.213Z,24.6
2022-09-03T07:33:07.576Z,25.1
2022-09-03T07:43:16.799Z,25.4
2022-09-03T07:53:17.081Z,25.8
2022-09-03T08:03:26.164Z,26.5
2022-09-03T08:13:35.441Z,28.3
2022-09-03T08:23:34.983Z,28.4
2022-09-03T08:33:45.666Z,27.4
2022-09-03T08:43:45.787Z,27.5
2022-09-03T08:53:54.657Z,27.9
2022-09-03T09:04:04.050Z,28.5
2022-09-03T09:14:12.553Z,29.2
2022-09-03T09:34:25.389Z,30.5
2022-09-03T09:44:23.596Z,30.1
2022-09-03T09:54:32.940Z,29.5
2022-09-03T10:04:33.307Z,29.9
2022-09-03T10:14:32.438Z,30.1
2022-09-03T10:24:42.133Z,29.9
2022-09-03T10:44:54.149Z,31
2022-09-03T11:15:07.389Z,30.1
2022-09-03T11:25:18.561Z,30.4
2022-09-03T11:35:16.937Z,30.4
2022-09-03T11:45:31.499Z,30.5
2022-09-03T12:03:00.079Z,30.7
2022-09-03T12:05:34.487Z,30.8
2022-09-03T12:15:39.633Z,30.8
2022-09-03T12:25:48.079Z,30.9
2022-09-03T12:36:00.407Z,30.9
2022-09-03T12:46:11.631Z,31.2
2022-09-03T12:56:05.277Z,31.2
2022-09-03T13:06:07.132Z,31
2022-09-03T13:16:07.907Z,31.1
2022-09-03T13:26:16.649Z,30.9
2022-09-03T13:36:26.197Z,31
2022-09-03T13:46:39.750Z,30.8
2022-09-03T13:56:40.742Z,30.8
2022-09-03T14:06:43.789Z,30.9
2022-09-03T14:16:50.699Z,30.9
2022-09-03T14:26:51.252Z,30.2
2022-09-03T14:36:49.644Z,29.9
2022-09-03T14:46:51.131Z,29.5
2022-09-03T15:27:12.541Z,28.4
2022-09-03T15:37:07.372Z,28.3
2022-09-03T15:47:16.305Z,28.1
2022-09-03T16:07:13.670Z,28.4
2022-09-03T16:17:21.377Z,28.1
2022-09-03T16:27:29.503Z,28
2022-09-03T16:37:37.677Z,28.1
2022-09-03T16:47:45.785Z,28
2022-09-03T16:57:54.267Z,27.9
2022-09-03T17:08:02.356Z,28
2022-09-03T17:18:10.438Z,27.9
2022-09-03T17:28:21.390Z,27.8
2022-09-03T17:38:25.614Z,27.7
2022-09-03T17:48:33.752Z,27.8
2022-09-03T17:58:41.782Z,27.8
2022-09-03T18:08:49.927Z,27.8
2022-09-03T18:18:57.895Z,27.5
2022-09-03T18:29:06.008Z,27.5
2022-09-03T18:39:14.218Z,27.6
2022-09-03T18:49:23.458Z,27.8
2022-09-03T18:59:22.735Z,28.1
2022-09-03T19:09:31.250Z,27.5
2022-09-03T19:19:47.008Z,27.7
2022-09-03T19:29:51.710Z,27.7
2022-09-03T19:39:50.847Z,27.7
2022-09-03T19:49:59.943Z,27.3
2022-09-03T20:00:00.082Z,27.6
2022-09-03T20:10:08.048Z,27.4
2022-09-03T20:20:17.436Z,27.4
2022-09-03T20:30:24.932Z,27.3
2022-09-03T20:40:33.175Z,27.3
2022-09-03T20:50:41.664Z,27.3
2022-09-03T21:00:49.931Z,27.1
2022-09-03T21:10:59.555Z,27.1
2022-09-03T21:20:59.632Z,26.5
2022-09-03T21:31:11.316Z,26.7
2022-09-03T21:41:10.534Z,26.7
2022-09-03T21:51:20.239Z,26.4
2022-09-03T22:01:28.657Z,26.3
2022-09-03T22:11:29.507Z,26.4
2022-09-03T22:21:30.219Z,26.3
2022-09-03T22:31:38.485Z,26.1
2022-09-03T22:41:46.692Z,26
2022-09-03T22:51:54.869Z,26
2022-09-03T23:02:03.106Z,25.7
2022-09-03T23:12:11.384Z,25.7
2022-09-03T23:22:19.548Z,25.6
2022-09-03T23:32:31.321Z,25.6
2022-09-03T23:42:36.305Z,25.5
2022-09-03T23:52:44.474Z,25.5
